Shinkai Maru — JJ4012 — position and weather

sailwx.info

Track history (hours):
 
Tides and Currents Weather Stations Pressure Air Temp Water Temp Dewpoint Dewpoint Depression Visibility Wind Speed Wind Dir Waves Ship Positions

Shinkai Maru

Last reported at 2018-Apr-25 01:00 UTC. Time now 2018-Apr-25 01:04 UTC.
Position N 34°37' E 134°55'.

Length 76 m; draft 4.1 m.

Type: Cargo ship. MMSI: 431301346.

Date/timePositionNaut miles runAvg speedWind from/ knotsBaromVisibWave heightAir tempDewpointWater temp
2018-Apr-25 01:00N 34°37' E 134°55'5 9.5
2018-Apr-25 00:31N 34°38' E 135°00'5 9.1
2018-Apr-25 00:00N 34°36' E 135°06'611.1
2018-Apr-24 23:31N 34°39' E 135°11'1 1.1
2018-Apr-24 22:58N 34°39' E 135°12'0 0.0
2018-Apr-24 22:26N 34°39' E 135°12'0 0.0
2018-Apr-24 21:59N 34°39' E 135°12'0 0.0
2018-Apr-24 21:29N 34°39' E 135°12'0 0.0
2018-Apr-24 20:59N 34°39' E 135°12'0 0.0
2018-Apr-24 20:29N 34°39' E 135°12'0 0.0
2018-Apr-24 19:59N 34°39' E 135°12'0 0.1
2018-Apr-24 19:29N 34°39' E 135°12'0 0.1
2018-Apr-24 18:59N 34°39' E 135°12'0 0.1
2018-Apr-24 18:29N 34°39' E 135°12'0 0.0
2018-Apr-24 17:59N 34°39' E 135°12'0 0.0
2018-Apr-24 17:29N 34°39' E 135°12'0 0.1
2018-Apr-24 16:58N 34°39' E 135°12'0 0.1
2018-Apr-24 16:29N 34°39' E 135°12'0 0.0
2018-Apr-24 15:59N 34°39' E 135°12'0 0.0
2018-Apr-24 15:28N 34°39' E 135°12'0 0.1
2018-Apr-24 14:59N 34°39' E 135°12'0 0.0
2018-Apr-24 14:29N 34°39' E 135°12'0 0.0
2018-Apr-24 13:59N 34°39' E 135°12'1 1.3
2018-Apr-24 13:30N 34°39' E 135°11'611.6
2018-Apr-24 13:00N 34°34' E 135°08'612.1
2018-Apr-24 12:30N 34°28' E 135°05'612.2
2018-Apr-24 12:01N 34°23' E 135°02'612.2
2018-Apr-24 11:31N 34°17' E 134°60'611.4
2018-Apr-24 11:00N 34°11' E 135°01'612.3
2018-Apr-24 10:30N 34°05' E 135°01'612.6
2018-Apr-24 10:00N 33°59' E 135°02'712.3
2018-Apr-24 09:26N 33°52' E 135°03'17410.4
2018-Apr-23 16:39N 34°32' E 138°29'412.0
2018-Apr-23 16:22N 34°32' E 138°33'612.0
2018-Apr-23 15:52N 34°33' E 138°40'511.7
2018-Apr-23 15:24N 34°34' E 138°47'511.6
2018-Apr-23 14:59N 34°35' E 138°52'611.1
2018-Apr-23 14:25N 34°38' E 138°59'512.5
2018-Apr-23 14:00N 34°41' E 139°04'611.2
2018-Apr-23 13:30N 34°45' E 139°09'710.0
2018-Apr-23 12:50N 34°49' E 139°15'510.0
2018-Apr-23 12:23N 34°52' E 139°19'10 9.9
2018-Apr-23 11:23N 34°58' E 139°29'411.2
2018-Apr-23 11:00N 35°01' E 139°32'612.2
2018-Apr-23 10:30N 35°05' E 139°38'612.5
2018-Apr-23 10:00N 35°10' E 139°44'611.9
2018-Apr-23 09:30N 35°15' E 139°46'612.0
2018-Apr-23 09:00N 35°20' E 139°43'611.4
2018-Apr-23 08:30N 35°26' E 139°45'612.4
2018-Apr-23 08:00N 35°29' E 139°51'612.0
2018-Apr-23 07:30N 35°34' E 139°55'6 0.7
2018-Apr-22 22:54N 35°40' E 139°57'3 8.6
2018-Apr-22 22:30N 35°37' E 139°58'0 0.1
2018-Apr-22 22:00N 35°37' E 139°58'0 0.0
2018-Apr-22 21:28N 35°37' E 139°58'0 0.0
2018-Apr-22 20:52N 35°37' E 139°58'0 0.0
2018-Apr-22 20:28N 35°37' E 139°58'0 0.0
2018-Apr-22 19:58N 35°37' E 139°58'0 0.0
2018-Apr-22 18:28N 35°37' E 139°58'0 0.0
2018-Apr-22 17:46N 35°37' E 139°58'0 0.0
2018-Apr-22 17:28N 35°37' E 139°58'0 0.1
2018-Apr-22 16:46N 35°37' E 139°58'0 0.0
2018-Apr-22 16:28N 35°37' E 139°58'0 0.0
2018-Apr-22 13:56N 35°37' E 139°58'510.8
2018-Apr-22 13:30N 35°33' E 139°55'612.2
2018-Apr-22 13:00N 35°28' E 139°51'612.4
2018-Apr-22 12:31N 35°23' E 139°46'611.4
2018-Apr-22 12:00N 35°18' E 139°45'611.9
2018-Apr-22 11:31N 35°12' E 139°47'612.1
2018-Apr-22 11:00N 35°06' E 139°44'612.2
2018-Apr-22 10:31N 35°02' E 139°39'612.6
2018-Apr-22 10:00N 34°58' E 139°33'913.9
2018-Apr-22 09:22N 34°53' E 139°24'1813.8
2018-Apr-22 08:02N 34°42' E 139°06'213.3
2018-Apr-22 07:53N 34°40' E 139°04'512.8
2018-Apr-22 07:29N 34°37' E 138°60'813.3
2018-Apr-22 06:55N 34°34' E 138°51'613.4
2018-Apr-22 06:29N 34°33' E 138°44'613.1
2018-Apr-22 06:00N 34°32' E 138°37'712.9
2018-Apr-22 05:30N 34°30' E 138°29'612.7
2018-Apr-22 05:00N 34°28' E 138°22'612.9
2018-Apr-22 04:30N 34°26' E 138°15'16310.1
2018-Apr-21 12:23N 33°52' E 135°02'410.6
2018-Apr-21 12:00N 33°56' E 135°01'611.3
2018-Apr-21 11:30N 34°02' E 135°00'611.5
2018-Apr-21 11:00N 34°07' E 134°59'713.2
2018-Apr-21 10:30N 34°14' E 134°59'713.0
2018-Apr-21 10:00N 34°20' E 134°59'612.1
2018-Apr-21 09:30N 34°26' E 135°00'611.8
2018-Apr-21 09:00N 34°32' E 135°02'510.7
2018-Apr-21 08:30N 34°37' E 134°60'713.8
2018-Apr-21 08:00N 34°39' E 134°52'6 8.5
2018-Apr-21 07:21N 34°44' E 134°49'0 0.0
2018-Apr-21 07:00N 34°44' E 134°49'0 0.0
2018-Apr-20 16:48N 34°43' E 134°49'1 3.1
2018-Apr-20 16:29N 34°43' E 134°48'1 2.4
2018-Apr-20 15:58N 34°42' E 134°50'0 0.0
2018-Apr-20 15:25N 34°42' E 134°50'0 0.0
2018-Apr-20 14:55N 34°42' E 134°50'0 0.0
2018-Apr-20 14:25N 34°42' E 134°50'0 0.0
2018-Apr-20 13:55N 34°42' E 134°50'0 0.0
2018-Apr-20 13:28N 34°42' E 134°50'0 0.1
2018-Apr-20 12:58N 34°42' E 134°50'1 1.3
2018-Apr-20 12:30N 34°42' E 134°50'612.1
2018-Apr-20 12:01N 34°37' E 134°55'613.0
2018-Apr-20 11:31N 34°36' E 135°03'612.0
2018-Apr-20 11:01N 34°36' E 135°10'612.0
2018-Apr-20 10:31N 34°36' E 135°17'612.1
2018-Apr-20 10:01N 34°39' E 135°24'3 4.7
2018-Apr-20 09:23N 34°38' E 135°28'0 0.0
2018-Apr-20 08:56N 34°38' E 135°28'0 0.0
2018-Apr-20 08:29N 34°38' E 135°28'0 0.0
2018-Apr-20 07:59N 34°38' E 135°28'0 0.0
2018-Apr-20 07:29N 34°38' E 135°28'0 0.0
2018-Apr-20 06:59N 34°38' E 135°28'0 0.0
2018-Apr-20 06:29N 34°38' E 135°28'0 0.0
2018-Apr-20 05:59N 34°38' E 135°28'0 0.1
2018-Apr-20 05:31N 34°38' E 135°28'4 7.1
2018-Apr-20 05:00N 34°38' E 135°23'2 3.7
2018-Apr-20 04:28N 34°37' E 135°26'0 0.0
2018-Apr-20 03:58N 34°37' E 135°26'0 0.0
2018-Apr-20 03:28N 34°37' E 135°26'0 0.0
2018-Apr-20 02:58N 34°37' E 135°26'0 0.0
2018-Apr-20 02:28N 34°37' E 135°26'0 0.0
2018-Apr-20 01:58N 34°37' E 135°26'0 0.0
2018-Apr-20 01:28N 34°37' E 135°26'0 0.0
2018-Apr-20 00:58N 34°37' E 135°26'0 0.0
2018-Apr-20 00:28N 34°37' E 135°26'0 0.0
2018-Apr-19 23:58N 34°37' E 135°26'0 0.0
2018-Apr-19 23:28N 34°37' E 135°26'0 0.0
2018-Apr-19 22:58N 34°37' E 135°26'0 0.4
2018-Apr-19 22:26N 34°37' E 135°26'2 5.4
2018-Apr-19 22:00N 34°37' E 135°23'0 0.0
2018-Apr-19 21:30N 34°37' E 135°23'0 0.0
2018-Apr-19 21:00N 34°37' E 135°23'0 0.0
2018-Apr-19 20:30N 34°37' E 135°23'0 0.1
2018-Apr-19 20:00N 34°38' E 135°23'0 0.1
2018-Apr-19 19:30N 34°37' E 135°23'0 0.0
2018-Apr-19 19:00N 34°37' E 135°23'0 0.0
2018-Apr-19 18:30N 34°37' E 135°23'0 0.0
2018-Apr-19 18:00N 34°37' E 135°23'0 0.0
2018-Apr-19 17:30N 34°37' E 135°23'0 0.0
2018-Apr-19 17:00N 34°37' E 135°23'0 0.0
2018-Apr-19 16:30N 34°37' E 135°23'0 0.0
2018-Apr-19 16:00N 34°37' E 135°23'0 0.1
2018-Apr-19 15:30N 34°37' E 135°23'0 0.0
2018-Apr-19 15:00N 34°37' E 135°23'0 0.0
2018-Apr-19 14:30N 34°37' E 135°23'0 0.0
2018-Apr-19 14:00N 34°37' E 135°23'3 6.7
2018-Apr-19 13:30N 34°35' E 135°20'612.0
2018-Apr-19 13:00N 34°31' E 135°14'612.0
2018-Apr-19 12:30N 34°27' E 135°10'612.9
2018-Apr-19 12:00N 34°22' E 135°05'713.6
2018-Apr-19 11:30N 34°17' E 134°59'612.1
2018-Apr-19 11:00N 34°10' E 135°00'612.7
2018-Apr-19 10:30N 34°04' E 135°01'713.1
2018-Apr-19 09:58N 33°57' E 135°02'19110.8
2018-Apr-18 16:12N 34°34' E 138°49'212.0
2018-Apr-18 16:00N 34°35' E 138°52'611.2
2018-Apr-18 15:25N 34°37' E 138°59'511.3
2018-Apr-18 14:59N 34°41' E 139°04'611.8
2018-Apr-18 14:27N 34°45' E 139°09'1511.7
2018-Apr-18 13:12N 34°54' E 139°23'611.2
2018-Apr-18 12:42N 34°58' E 139°28'311.3
2018-Apr-18 12:28N 35°00' E 139°30'511.6
2018-Apr-18 11:59N 35°03' E 139°35'612.5
2018-Apr-18 11:30N 35°07' E 139°41'612.5
2018-Apr-18 11:00N 35°12' E 139°46'611.6
2018-Apr-18 10:30N 35°18' E 139°44'611.7
2018-Apr-18 10:01N 35°24' E 139°43'612.1
2018-Apr-18 09:30N 35°28' E 139°48'612.2
2018-Apr-18 08:59N 35°32' E 139°53'711.4
2018-Apr-18 08:19N 35°39' E 139°58'  
2018-Apr-15 05:13N 35°38' E 139°58'  
Track history (hours):
 
Tides and Currents Weather Stations Pressure Air Temp Water Temp Dewpoint Dewpoint Depression Visibility Wind Speed Wind Dir Waves Ship Positions

Shinkai Maru

Last reported at 2018-Apr-25 01:00 UTC. Time now 2018-Apr-25 01:04 UTC.
Position N 34°37' E 134°55'.

Length 76 m; draft 4.1 m.

Type: Cargo ship. MMSI: 431301346.

Date/timePositionNaut miles runAvg speedWind from/ knotsBaromVisibWave heightAir tempDewpointWater temp
2018-Apr-25 01:00N 34°37' E 134°55'5 9.5
2018-Apr-25 00:31N 34°38' E 135°00'5 9.1
2018-Apr-25 00:00N 34°36' E 135°06'611.1
2018-Apr-24 23:31N 34°39' E 135°11'1 1.1
2018-Apr-24 22:58N 34°39' E 135°12'0 0.0
2018-Apr-24 22:26N 34°39' E 135°12'0 0.0
2018-Apr-24 21:59N 34°39' E 135°12'0 0.0
2018-Apr-24 21:29N 34°39' E 135°12'0 0.0
2018-Apr-24 20:59N 34°39' E 135°12'0 0.0
2018-Apr-24 20:29N 34°39' E 135°12'0 0.0
2018-Apr-24 19:59N 34°39' E 135°12'0 0.1
2018-Apr-24 19:29N 34°39' E 135°12'0 0.1
2018-Apr-24 18:59N 34°39' E 135°12'0 0.1
2018-Apr-24 18:29N 34°39' E 135°12'0 0.0
2018-Apr-24 17:59N 34°39' E 135°12'0 0.0
2018-Apr-24 17:29N 34°39' E 135°12'0 0.1
2018-Apr-24 16:58N 34°39' E 135°12'0 0.1
2018-Apr-24 16:29N 34°39' E 135°12'0 0.0
2018-Apr-24 15:59N 34°39' E 135°12'0 0.0
2018-Apr-24 15:28N 34°39' E 135°12'0 0.1
2018-Apr-24 14:59N 34°39' E 135°12'0 0.0
2018-Apr-24 14:29N 34°39' E 135°12'0 0.0
2018-Apr-24 13:59N 34°39' E 135°12'1 1.3
2018-Apr-24 13:30N 34°39' E 135°11'611.6
2018-Apr-24 13:00N 34°34' E 135°08'612.1
2018-Apr-24 12:30N 34°28' E 135°05'612.2
2018-Apr-24 12:01N 34°23' E 135°02'612.2
2018-Apr-24 11:31N 34°17' E 134°60'611.4
2018-Apr-24 11:00N 34°11' E 135°01'612.3
2018-Apr-24 10:30N 34°05' E 135°01'612.6
2018-Apr-24 10:00N 33°59' E 135°02'712.3
2018-Apr-24 09:26N 33°52' E 135°03'17410.4
2018-Apr-23 16:39N 34°32' E 138°29'412.0
2018-Apr-23 16:22N 34°32' E 138°33'612.0
2018-Apr-23 15:52N 34°33' E 138°40'511.7
2018-Apr-23 15:24N 34°34' E 138°47'511.6
2018-Apr-23 14:59N 34°35' E 138°52'611.1
2018-Apr-23 14:25N 34°38' E 138°59'512.5
2018-Apr-23 14:00N 34°41' E 139°04'611.2
2018-Apr-23 13:30N 34°45' E 139°09'710.0
2018-Apr-23 12:50N 34°49' E 139°15'510.0
2018-Apr-23 12:23N 34°52' E 139°19'10 9.9
2018-Apr-23 11:23N 34°58' E 139°29'411.2
2018-Apr-23 11:00N 35°01' E 139°32'612.2
2018-Apr-23 10:30N 35°05' E 139°38'612.5
2018-Apr-23 10:00N 35°10' E 139°44'611.9
2018-Apr-23 09:30N 35°15' E 139°46'612.0
2018-Apr-23 09:00N 35°20' E 139°43'611.4
2018-Apr-23 08:30N 35°26' E 139°45'612.4
2018-Apr-23 08:00N 35°29' E 139°51'612.0
2018-Apr-23 07:30N 35°34' E 139°55'6 0.7
2018-Apr-22 22:54N 35°40' E 139°57'3 8.6
2018-Apr-22 22:30N 35°37' E 139°58'0 0.1
2018-Apr-22 22:00N 35°37' E 139°58'0 0.0
2018-Apr-22 21:28N 35°37' E 139°58'0 0.0
2018-Apr-22 20:52N 35°37' E 139°58'0 0.0
2018-Apr-22 20:28N 35°37' E 139°58'0 0.0
2018-Apr-22 19:58N 35°37' E 139°58'0 0.0
2018-Apr-22 18:28N 35°37' E 139°58'0 0.0
2018-Apr-22 17:46N 35°37' E 139°58'0 0.0
2018-Apr-22 17:28N 35°37' E 139°58'0 0.1
2018-Apr-22 16:46N 35°37' E 139°58'0 0.0
2018-Apr-22 16:28N 35°37' E 139°58'0 0.0
2018-Apr-22 13:56N 35°37' E 139°58'510.8
2018-Apr-22 13:30N 35°33' E 139°55'612.2
2018-Apr-22 13:00N 35°28' E 139°51'612.4
2018-Apr-22 12:31N 35°23' E 139°46'611.4
2018-Apr-22 12:00N 35°18' E 139°45'611.9
2018-Apr-22 11:31N 35°12' E 139°47'612.1
2018-Apr-22 11:00N 35°06' E 139°44'612.2
2018-Apr-22 10:31N 35°02' E 139°39'612.6
2018-Apr-22 10:00N 34°58' E 139°33'913.9
2018-Apr-22 09:22N 34°53' E 139°24'1813.8
2018-Apr-22 08:02N 34°42' E 139°06'213.3
2018-Apr-22 07:53N 34°40' E 139°04'512.8
2018-Apr-22 07:29N 34°37' E 138°60'813.3
2018-Apr-22 06:55N 34°34' E 138°51'613.4
2018-Apr-22 06:29N 34°33' E 138°44'613.1
2018-Apr-22 06:00N 34°32' E 138°37'712.9
2018-Apr-22 05:30N 34°30' E 138°29'612.7
2018-Apr-22 05:00N 34°28' E 138°22'612.9
2018-Apr-22 04:30N 34°26' E 138°15'16310.1
2018-Apr-21 12:23N 33°52' E 135°02'410.6
2018-Apr-21 12:00N 33°56' E 135°01'611.3
2018-Apr-21 11:30N 34°02' E 135°00'611.5
2018-Apr-21 11:00N 34°07' E 134°59'713.2
2018-Apr-21 10:30N 34°14' E 134°59'713.0
2018-Apr-21 10:00N 34°20' E 134°59'612.1
2018-Apr-21 09:30N 34°26' E 135°00'611.8
2018-Apr-21 09:00N 34°32' E 135°02'510.7
2018-Apr-21 08:30N 34°37' E 134°60'713.8
2018-Apr-21 08:00N 34°39' E 134°52'6 8.5
2018-Apr-21 07:21N 34°44' E 134°49'0 0.0
2018-Apr-21 07:00N 34°44' E 134°49'0 0.0
2018-Apr-20 16:48N 34°43' E 134°49'1 3.1
2018-Apr-20 16:29N 34°43' E 134°48'1 2.4
2018-Apr-20 15:58N 34°42' E 134°50'0 0.0
2018-Apr-20 15:25N 34°42' E 134°50'0 0.0
2018-Apr-20 14:55N 34°42' E 134°50'0 0.0
2018-Apr-20 14:25N 34°42' E 134°50'0 0.0
2018-Apr-20 13:55N 34°42' E 134°50'0 0.0
2018-Apr-20 13:28N 34°42' E 134°50'0 0.1
2018-Apr-20 12:58N 34°42' E 134°50'1 1.3
2018-Apr-20 12:30N 34°42' E 134°50'612.1
2018-Apr-20 12:01N 34°37' E 134°55'613.0
2018-Apr-20 11:31N 34°36' E 135°03'612.0
2018-Apr-20 11:01N 34°36' E 135°10'612.0
2018-Apr-20 10:31N 34°36' E 135°17'612.1
2018-Apr-20 10:01N 34°39' E 135°24'3 4.7
2018-Apr-20 09:23N 34°38' E 135°28'0 0.0
2018-Apr-20 08:56N 34°38' E 135°28'0 0.0
2018-Apr-20 08:29N 34°38' E 135°28'0 0.0
2018-Apr-20 07:59N 34°38' E 135°28'0 0.0
2018-Apr-20 07:29N 34°38' E 135°28'0 0.0
2018-Apr-20 06:59N 34°38' E 135°28'0 0.0
2018-Apr-20 06:29N 34°38' E 135°28'0 0.0
2018-Apr-20 05:59N 34°38' E 135°28'0 0.1
2018-Apr-20 05:31N 34°38' E 135°28'4 7.1
2018-Apr-20 05:00N 34°38' E 135°23'2 3.7
2018-Apr-20 04:28N 34°37' E 135°26'0 0.0
2018-Apr-20 03:58N 34°37' E 135°26'0 0.0
2018-Apr-20 03:28N 34°37' E 135°26'0 0.0
2018-Apr-20 02:58N 34°37' E 135°26'0 0.0
2018-Apr-20 02:28N 34°37' E 135°26'0 0.0
2018-Apr-20 01:58N 34°37' E 135°26'0 0.0
2018-Apr-20 01:28N 34°37' E 135°26'0 0.0
2018-Apr-20 00:58N 34°37' E 135°26'0 0.0
2018-Apr-20 00:28N 34°37' E 135°26'0 0.0
2018-Apr-19 23:58N 34°37' E 135°26'0 0.0
2018-Apr-19 23:28N 34°37' E 135°26'0 0.0
2018-Apr-19 22:58N 34°37' E 135°26'0 0.4
2018-Apr-19 22:26N 34°37' E 135°26'2 5.4
2018-Apr-19 22:00N 34°37' E 135°23'0 0.0
2018-Apr-19 21:30N 34°37' E 135°23'0 0.0
2018-Apr-19 21:00N 34°37' E 135°23'0 0.0
2018-Apr-19 20:30N 34°37' E 135°23'0 0.1
2018-Apr-19 20:00N 34°38' E 135°23'0 0.1
2018-Apr-19 19:30N 34°37' E 135°23'0 0.0
2018-Apr-19 19:00N 34°37' E 135°23'0 0.0
2018-Apr-19 18:30N 34°37' E 135°23'0 0.0
2018-Apr-19 18:00N 34°37' E 135°23'0 0.0
2018-Apr-19 17:30N 34°37' E 135°23'0 0.0
2018-Apr-19 17:00N 34°37' E 135°23'0 0.0
2018-Apr-19 16:30N 34°37' E 135°23'0 0.0
2018-Apr-19 16:00N 34°37' E 135°23'0 0.1
2018-Apr-19 15:30N 34°37' E 135°23'0 0.0
2018-Apr-19 15:00N 34°37' E 135°23'0 0.0
2018-Apr-19 14:30N 34°37' E 135°23'0 0.0
2018-Apr-19 14:00N 34°37' E 135°23'3 6.7
2018-Apr-19 13:30N 34°35' E 135°20'612.0
2018-Apr-19 13:00N 34°31' E 135°14'612.0
2018-Apr-19 12:30N 34°27' E 135°10'612.9
2018-Apr-19 12:00N 34°22' E 135°05'713.6
2018-Apr-19 11:30N 34°17' E 134°59'612.1
2018-Apr-19 11:00N 34°10' E 135°00'612.7
2018-Apr-19 10:30N 34°04' E 135°01'713.1
2018-Apr-19 09:58N 33°57' E 135°02'19110.8
2018-Apr-18 16:12N 34°34' E 138°49'212.0
2018-Apr-18 16:00N 34°35' E 138°52'611.2
2018-Apr-18 15:25N 34°37' E 138°59'511.3
2018-Apr-18 14:59N 34°41' E 139°04'611.8
2018-Apr-18 14:27N 34°45' E 139°09'1511.7
2018-Apr-18 13:12N 34°54' E 139°23'611.2
2018-Apr-18 12:42N 34°58' E 139°28'311.3
2018-Apr-18 12:28N 35°00' E 139°30'511.6
2018-Apr-18 11:59N 35°03' E 139°35'612.5
2018-Apr-18 11:30N 35°07' E 139°41'612.5
2018-Apr-18 11:00N 35°12' E 139°46'611.6
2018-Apr-18 10:30N 35°18' E 139°44'611.7
2018-Apr-18 10:01N 35°24' E 139°43'612.1
2018-Apr-18 09:30N 35°28' E 139°48'612.2
2018-Apr-18 08:59N 35°32' E 139°53'711.4
2018-Apr-18 08:19N 35°39' E 139°58'  
2018-Apr-15 05:13N 35°38' E 139°58'  

Dump ship's entire track history